Time;durP1;ratioP1;P1;durP2;ratioP2;P2;SDS_P1;SDS_P2;PMS_P1;PMS_P2;Temp;Humidity;BMP_temperature;BMP_pressure;BME280_temperature;BME280_humidity;BME280_pressure;Samples;Min_cycle;Max_cycle;Signal;HPM_P1;HPM_P2
2023/08/18 00:01:47;;;;;;;0.50;0.20;;;;;;;21.62;100.00;100191.75;5014967;28;20555;-50
2023/08/18 00:04:13;;;;;;;0.50;0.20;;;;;;;21.55;100.00;100191.34;5014742;28;20802;-49
2023/08/18 00:06:40;;;;;;;0.50;0.20;;;;;;;21.71;100.00;100188.34;5015002;28;20456;-49
2023/08/18 00:09:07;;;;;;;0.50;0.20;;;;;;;21.71;100.00;100182.94;5014546;28;20452;-49
2023/08/18 00:11:34;;;;;;;0.50;0.20;;;;;;;21.67;100.00;100186.00;5014565;28;20497;-49
2023/08/18 00:14:00;;;;;;;0.50;0.30;;;;;;;21.61;100.00;100191.84;5014474;28;20453;-49
2023/08/18 00:16:27;;;;;;;0.50;0.20;;;;;;;21.56;100.00;100190.38;5014963;28;20503;-49
2023/08/18 00:18:53;;;;;;;0.50;0.20;;;;;;;21.53;100.00;100187.91;5009766;28;20474;-49
2023/08/18 00:21:20;;;;;;;0.50;0.20;;;;;;;21.49;100.00;100193.66;5014564;28;20530;-49
2023/08/18 00:23:46;;;;;;;0.50;0.20;;;;;;;21.32;100.00;100180.53;5014395;28;20457;-49
2023/08/18 00:26:13;;;;;;;0.50;0.20;;;;;;;21.32;100.00;100177.84;5013511;28;20561;-49
2023/08/18 00:28:39;;;;;;;0.50;0.20;;;;;;;21.42;100.00;100184.28;5014235;28;20452;-49
2023/08/18 00:31:05;;;;;;;0.50;0.20;;;;;;;21.35;100.00;100177.59;5014316;28;20463;-50
2023/08/18 00:33:32;;;;;;;0.50;0.20;;;;;;;21.36;100.00;100190.13;5014035;28;20953;-49
2023/08/18 00:35:58;;;;;;;0.50;0.20;;;;;;;21.29;100.00;100187.03;5011263;28;20457;-50
2023/08/18 00:38:25;;;;;;;0.50;0.20;;;;;;;21.28;100.00;100186.19;5001291;28;20456;-50
2023/08/18 00:40:51;;;;;;;0.50;0.20;;;;;;;21.21;100.00;100181.28;5013878;28;20455;-49
2023/08/18 00:43:18;;;;;;;0.50;0.20;;;;;;;21.17;100.00;100185.22;5004186;28;20460;-49
2023/08/18 00:45:44;;;;;;;0.50;0.20;;;;;;;21.15;100.00;100179.06;5014243;28;20568;-49
2023/08/18 00:48:11;;;;;;;0.50;0.20;;;;;;;21.16;100.00;100178.94;4983498;28;20457;-49
2023/08/18 00:50:38;;;;;;;0.50;0.20;;;;;;;21.10;100.00;100176.69;5007308;28;20830;-49
2023/08/18 00:53:05;;;;;;;0.50;0.20;;;;;;;21.14;100.00;100180.03;5013983;28;20480;-49
2023/08/18 00:55:31;;;;;;;0.50;0.20;;;;;;;21.18;100.00;100173.41;5013800;28;20480;-50
2023/08/18 00:58:01;;;;;;;0.50;0.20;;;;;;;21.12;100.00;100179.28;5013696;28;20437;-49
2023/08/18 01:00:27;;;;;;;0.50;0.20;;;;;;;21.16;100.00;100173.53;5013691;28;20445;-49
2023/08/18 01:02:54;;;;;;;0.40;0.20;;;;;;;21.30;100.00;100177.94;5013753;28;20473;-49
2023/08/18 01:05:20;;;;;;;0.50;0.27;;;;;;;21.22;100.00;100174.91;5013418;28;20491;-49
2023/08/18 01:07:47;;;;;;;0.50;0.30;;;;;;;21.24;100.00;100172.94;5013612;28;20539;-49
2023/08/18 01:10:14;;;;;;;0.47;0.20;;;;;;;21.28;100.00;100179.91;5013361;28;20536;-50
2023/08/18 01:13:00;;;;;;;0.50;0.30;;;;;;;21.19;100.00;100175.16;5013705;28;20473;-50
2023/08/18 01:15:33;;;;;;;0.50;0.30;;;;;;;21.34;100.00;100173.16;5013381;28;20451;-49
2023/08/18 01:18:01;;;;;;;0.50;0.20;;;;;;;21.27;100.00;100167.38;5010177;28;20535;-49
2023/08/18 01:20:28;;;;;;;0.50;0.20;;;;;;;21.19;100.00;100164.34;5012756;28;20864;-49
2023/08/18 01:22:58;;;;;;;0.50;0.30;;;;;;;21.08;100.00;100158.84;5013118;28;20472;-49
2023/08/18 01:25:25;;;;;;;0.50;0.20;;;;;;;21.04;100.00;100166.34;4988114;28;20562;-49
2023/08/18 01:27:53;;;;;;;0.50;0.20;;;;;;;20.93;100.00;100159.00;5013114;28;20456;-49
2023/08/18 01:30:21;;;;;;;0.50;0.30;;;;;;;20.80;100.00;100163.59;5013381;28;20433;-49
2023/08/18 01:33:11;;;;;;;0.50;0.20;;;;;;;20.93;100.00;100164.41;5013549;28;20476;-49
2023/08/18 01:35:39;;;;;;;0.50;0.20;;;;;;;20.75;100.00;100159.50;5010267;28;20860;-49
2023/08/18 01:38:07;;;;;;;0.50;0.30;;;;;;;20.80;100.00;100162.72;4999839;28;20485;-49
2023/08/18 01:40:35;;;;;;;0.50;0.20;;;;;;;20.88;100.00;100169.31;5013155;28;20527;-49
2023/08/18 01:43:03;;;;;;;0.50;0.20;;;;;;;20.87;100.00;100162.19;5003094;28;20481;-49
2023/08/18 01:45:31;;;;;;;0.50;0.20;;;;;;;20.83;100.00;100168.78;5012890;28;20867;-49
2023/08/18 01:47:58;;;;;;;0.50;0.20;;;;;;;20.66;100.00;100152.94;5009541;28;20886;-49
2023/08/18 01:50:24;;;;;;;0.50;0.20;;;;;;;20.74;100.00;100152.38;5005220;28;20464;-50
2023/08/18 01:52:51;;;;;;;0.50;0.20;;;;;;;20.77;100.00;100149.44;5012918;28;20495;-49
2023/08/18 01:55:17;;;;;;;0.50;0.20;;;;;;;20.75;100.00;100144.16;5013093;28;20510;-49
2023/08/18 01:57:43;;;;;;;0.50;0.20;;;;;;;20.81;100.00;100134.72;5012750;28;20921;-49
2023/08/18 02:00:10;;;;;;;0.50;0.20;;;;;;;20.85;100.00;100134.41;5012775;28;20426;-49
2023/08/18 02:02:45;;;;;;;0.50;0.20;;;;;;;20.80;100.00;100138.41;4988239;28;20526;-49
2023/08/18 02:05:12;;;;;;;0.40;0.20;;;;;;;20.78;100.00;100141.22;5012610;28;20499;-49
2023/08/18 02:07:38;;;;;;;0.50;0.30;;;;;;;20.57;100.00;100135.56;5012870;28;20544;-49
2023/08/18 02:10:05;;;;;;;0.50;0.20;;;;;;;20.47;100.00;100126.41;5012504;28;20448;-49
2023/08/18 02:12:32;;;;;;;0.40;0.20;;;;;;;20.51;100.00;100129.72;5012614;28;20551;-49
2023/08/18 02:14:58;;;;;;;0.50;0.20;;;;;;;20.56;100.00;100120.34;5012527;28;20415;-49
2023/08/18 02:17:29;;;;;;;0.50;0.20;;;;;;;20.47;100.00;100125.53;5012717;28;20517;-49
2023/08/18 02:19:59;;;;;;;0.50;0.30;;;;;;;20.53;100.00;100127.78;5008365;28;20445;-49
2023/08/18 02:22:26;;;;;;;0.50;0.20;;;;;;;20.53;100.00;100125.06;5012606;28;20447;-49
2023/08/18 02:24:53;;;;;;;0.50;0.20;;;;;;;20.59;100.00;100128.22;5012278;28;20451;-49
2023/08/18 02:27:20;;;;;;;0.50;0.20;;;;;;;20.51;100.00;100132.44;5012409;28;20491;-49
2023/08/18 02:29:47;;;;;;;0.50;0.30;;;;;;;20.55;100.00;100134.78;5011091;28;20985;-49
2023/08/18 02:32:13;;;;;;;0.50;0.20;;;;;;;20.42;100.00;100131.25;5012435;28;20457;-49
2023/08/18 02:34:40;;;;;;;0.47;0.20;;;;;;;20.45;100.00;100128.34;5009698;28;20506;-49
2023/08/18 02:37:06;;;;;;;0.50;0.20;;;;;;;20.40;100.00;100128.63;5003291;28;20420;-49
2023/08/18 02:39:33;;;;;;;0.50;0.20;;;;;;;20.24;100.00;100132.53;5008432;28;20423;-49
2023/08/18 02:41:59;;;;;;;0.50;0.20;;;;;;;20.30;100.00;100141.06;5006458;28;21001;-49
2023/08/18 02:44:26;;;;;;;0.50;0.20;;;;;;;20.32;100.00;100131.03;5008573;28;21015;-50
2023/08/18 02:46:52;;;;;;;0.50;0.20;;;;;;;20.34;100.00;100134.47;5012143;28;21092;-49
2023/08/18 02:49:19;;;;;;;0.50;0.20;;;;;;;20.38;100.00;100124.31;5001136;28;20548;-49
2023/08/18 02:51:45;;;;;;;0.50;0.20;;;;;;;20.31;100.00;100128.44;5016159;28;20609;-49
2023/08/18 02:54:12;;;;;;;0.50;0.20;;;;;;;20.32;100.00;100132.88;5015948;28;20837;-48
2023/08/18 02:56:38;;;;;;;0.50;0.30;;;;;;;20.32;100.00;100127.47;5015983;28;20444;-49
2023/08/18 02:59:04;;;;;;;0.50;0.20;;;;;;;20.25;100.00;100132.44;5016069;28;20478;-49
2023/08/18 03:01:31;;;;;;;0.50;0.20;;;;;;;20.33;100.00;100130.06;5015899;28;20479;-49
2023/08/18 03:03:58;;;;;;;0.40;0.20;;;;;;;20.25;100.00;100132.44;5015922;28;20491;-49
2023/08/18 03:06:24;;;;;;;0.50;0.20;;;;;;;20.21;100.00;100127.38;5015963;28;20550;-49
2023/08/18 03:08:51;;;;;;;0.43;0.20;;;;;;;20.23;100.00;100137.06;5015737;28;20466;-49
2023/08/18 03:11:17;;;;;;;0.50;0.20;;;;;;;20.05;100.00;100135.69;5015641;28;20476;-49
2023/08/18 03:13:43;;;;;;;0.47;0.20;;;;;;;20.14;100.00;100145.81;5015479;28;20958;-49
2023/08/18 03:16:10;;;;;;;0.40;0.20;;;;;;;20.10;100.00;100144.31;5015882;28;20480;-49
2023/08/18 03:18:36;;;;;;;0.50;0.20;;;;;;;20.10;100.00;100141.63;5010301;28;20451;-50
2023/08/18 03:21:03;;;;;;;0.50;0.30;;;;;;;20.10;100.00;100139.78;5015467;28;20449;-49
2023/08/18 03:23:30;;;;;;;0.83;0.83;;;;;;;20.11;100.00;100146.91;5015542;28;20904;-50
2023/08/18 03:26:04;;;;;;;0.40;0.20;;;;;;;19.94;100.00;100133.72;5015387;28;20984;-49
2023/08/18 03:28:33;;;;;;;0.40;0.20;;;;;;;19.93;100.00;100128.44;5015523;28;20463;-49
2023/08/18 03:31:04;;;;;;;0.50;0.30;;;;;;;20.02;100.00;100135.91;5015444;28;20455;-50
2023/08/18 03:33:31;;;;;;;0.50;0.20;;;;;;;20.12;100.00;100145.06;5015390;28;20433;-49
2023/08/18 03:35:58;;;;;;;1.67;1.67;;;;;;;20.18;100.00;100138.38;5012352;28;21050;-49
2023/08/18 03:38:25;;;;;;;0.50;0.20;;;;;;;20.18;100.00;100135.69;5002179;28;20517;-49
2023/08/18 03:41:00;;;;;;;0.50;0.20;;;;;;;20.16;100.00;100135.78;5015316;28;20444;-49
2023/08/18 03:43:27;;;;;;;0.50;0.20;;;;;;;20.06;100.00;100140.09;5005891;28;20953;-49
2023/08/18 03:45:57;;;;;;;0.50;0.20;;;;;;;20.16;100.00;100143.03;5015107;28;20463;-49
2023/08/18 03:48:23;;;;;;;0.50;0.20;;;;;;;20.03;100.00;100137.63;5008620;28;20445;-49
2023/08/18 03:50:50;;;;;;;0.40;0.20;;;;;;;19.91;100.00;100141.19;5011033;28;20439;-49
2023/08/18 03:53:16;;;;;;;0.43;0.20;;;;;;;19.87;100.00;100140.50;5015019;28;20818;-49
2023/08/18 03:55:43;;;;;;;0.40;0.20;;;;;;;19.88;100.00;100141.41;5014891;28;21082;-49
2023/08/18 03:58:09;;;;;;;0.50;0.23;;;;;;;19.92;100.00;100140.22;5014861;28;20515;-49
2023/08/18 04:00:36;;;;;;;0.40;0.20;;;;;;;19.95;100.00;100140.00;5014279;28;20449;-49
2023/08/18 04:03:05;;;;;;;0.47;0.20;;;;;;;19.90;100.00;100142.16;5014098;28;20560;-50
2023/08/18 04:05:31;;;;;;;0.40;0.20;;;;;;;19.86;100.00;100138.78;5014491;28;20467;-49
2023/08/18 04:07:58;;;;;;;0.50;0.20;;;;;;;19.96;100.00;100137.19;5014981;28;20423;-49
2023/08/18 04:10:24;;;;;;;0.50;0.20;;;;;;;19.82;100.00;100140.84;5014662;28;20433;-49
2023/08/18 04:12:50;;;;;;;0.50;0.20;;;;;;;19.71;100.00;100138.00;5014714;28;20893;-49
2023/08/18 04:15:17;;;;;;;0.50;0.20;;;;;;;19.72;100.00;100128.94;5014514;28;20506;-49
2023/08/18 04:17:43;;;;;;;0.50;0.30;;;;;;;19.74;100.00;100139.66;5013229;28;20452;-49
2023/08/18 04:20:10;;;;;;;0.40;0.20;;;;;;;19.53;100.00;100140.13;5011204;28;20481;-49
2023/08/18 04:22:37;;;;;;;0.50;0.20;;;;;;;19.70;100.00;100141.69;5014333;28;21102;-49
2023/08/18 04:25:05;;;;;;;0.50;0.30;;;;;;;19.75;100.00;100141.38;5014591;28;20518;-49
2023/08/18 04:27:31;;;;;;;0.40;0.20;;;;;;;19.68;100.00;100146.31;5014353;28;20489;-49
2023/08/18 04:29:58;;;;;;;0.40;0.20;;;;;;;19.79;100.00;100149.16;5013827;28;20930;-49
2023/08/18 04:32:24;;;;;;;0.50;0.30;;;;;;;19.80;100.00;100153.56;5013932;28;20467;-49
2023/08/18 04:34:50;;;;;;;0.50;0.20;;;;;;;19.63;100.00;100143.09;4998612;28;20430;-49
2023/08/18 04:37:17;;;;;;;0.40;0.20;;;;;;;19.51;100.00;100144.75;5003670;28;20420;-49
2023/08/18 04:39:43;;;;;;;0.40;0.20;;;;;;;19.60;100.00;100150.50;5011634;28;20799;-49
2023/08/18 04:42:10;;;;;;;0.50;0.23;;;;;;;19.57;100.00;100153.41;5007315;28;20458;-49
2023/08/18 04:44:36;;;;;;;0.50;0.20;;;;;;;19.52;100.00;100156.41;5011936;28;20506;-49
2023/08/18 04:47:05;;;;;;;0.50;0.20;;;;;;;19.62;100.00;100151.28;5013835;28;21091;-50
2023/08/18 04:49:31;;;;;;;0.40;0.20;;;;;;;19.61;100.00;100152.25;5003079;28;20448;-50
2023/08/18 04:51:57;;;;;;;0.40;0.20;;;;;;;19.70;100.00;100149.78;5014040;28;20560;-50
2023/08/18 04:54:24;;;;;;;0.40;0.20;;;;;;;19.72;100.00;100157.75;5012920;28;20430;-50
2023/08/18 04:56:58;;;;;;;0.50;0.20;;;;;;;19.73;100.00;100160.34;5014046;28;20419;-50
2023/08/18 04:59:25;;;;;;;0.40;0.20;;;;;;;19.76;100.00;100162.84;5013710;28;20523;-50
2023/08/18 05:01:52;;;;;;;0.40;0.20;;;;;;;19.78;100.00;100162.75;5013861;28;20522;-50
2023/08/18 05:04:19;;;;;;;0.50;0.20;;;;;;;19.86;100.00;100168.47;5013829;28;20427;-49
2023/08/18 05:06:45;;;;;;;0.50;0.20;;;;;;;19.96;100.00;100171.41;5013575;28;20862;-50
2023/08/18 05:09:12;;;;;;;0.50;0.20;;;;;;;20.19;100.00;100177.91;5013600;28;20850;-50
2023/08/18 05:11:38;;;;;;;0.50;0.20;;;;;;;20.38;100.00;100171.06;5013456;28;20468;-50
2023/08/18 05:14:05;;;;;;;0.40;0.20;;;;;;;20.49;100.00;100161.38;5013190;28;20433;-50
2023/08/18 05:16:31;;;;;;;0.40;0.20;;;;;;;20.48;100.00;100165.94;5013631;28;20497;-50
2023/08/18 05:18:58;;;;;;;0.40;0.20;;;;;;;20.41;100.00;100162.78;5009059;28;20452;-50
2023/08/18 05:21:25;;;;;;;0.40;0.20;;;;;;;20.45;100.00;100168.84;5013390;28;20607;-50
2023/08/18 05:23:51;;;;;;;0.50;0.20;;;;;;;20.82;100.00;100166.19;5013305;28;20825;-49
2023/08/18 05:26:17;;;;;;;0.40;0.20;;;;;;;21.17;100.00;100171.69;5013308;28;20671;-49
2023/08/18 05:28:44;;;;;;;0.40;0.20;;;;;;;21.53;100.00;100179.78;5013344;28;20827;-50
2023/08/18 05:31:11;;;;;;;0.40;0.20;;;;;;;21.72;100.00;100181.94;5012121;28;20472;-49
2023/08/18 05:33:37;;;;;;;0.40;0.20;;;;;;;21.80;100.00;100181.38;5013417;28;20423;-50
2023/08/18 05:36:05;;;;;;;0.40;0.20;;;;;;;21.91;100.00;100177.81;5009478;28;20557;-50
2023/08/18 05:38:32;;;;;;;0.50;0.20;;;;;;;22.03;100.00;100179.56;5001238;28;20547;-49
2023/08/18 05:41:11;;;;;;;0.50;0.20;;;;;;;22.11;100.00;100179.88;5012766;28;20480;-50
2023/08/18 05:43:38;;;;;;;0.50;0.20;;;;;;;22.36;100.00;100193.22;5003610;28;20523;-50
2023/08/18 05:46:06;;;;;;;5.60;4.83;;;;;;;22.30;100.00;100190.97;5012940;28;20484;-50
2023/08/18 05:48:32;;;;;;;0.50;0.20;;;;;;;22.68;99.35;100187.06;5005297;28;20484;-49
2023/08/18 05:51:00;;;;;;;0.50;0.20;;;;;;;23.09;97.56;100191.88;5009539;28;20540;-50
2023/08/18 05:53:27;;;;;;;0.40;0.20;;;;;;;23.42;96.31;100188.19;5012932;28;20823;-50
2023/08/18 05:55:53;;;;;;;0.50;0.20;;;;;;;23.50;95.56;100187.56;5012648;28;20463;-50
2023/08/18 05:58:20;;;;;;;0.47;0.30;;;;;;;23.75;95.09;100192.69;5013045;28;20506;-50
2023/08/18 06:00:50;;;;;;;0.50;0.23;;;;;;;23.82;94.54;100190.28;5012650;28;20929;-50
2023/08/18 06:03:19;;;;;;;0.50;0.20;;;;;;;23.76;95.62;100188.13;5012896;28;20463;-51
2023/08/18 06:05:47;;;;;;;0.50;0.20;;;;;;;24.02;95.25;100188.59;5011284;28;20556;-51
2023/08/18 06:08:13;;;;;;;0.50;0.20;;;;;;;24.01;95.52;100193.16;5012640;28;20449;-51
2023/08/18 06:10:41;;;;;;;0.50;0.30;;;;;;;24.10;94.93;100194.22;5012847;28;20452;-51
2023/08/18 06:13:08;;;;;;;0.50;0.30;;;;;;;24.16;95.06;100191.84;5012668;28;20447;-51
2023/08/18 06:15:34;;;;;;;0.50;0.30;;;;;;;24.21;94.89;100194.16;5012462;28;20448;-51
2023/08/18 06:18:01;;;;;;;0.50;0.30;;;;;;;24.08;95.67;100188.91;5009213;28;20553;-51
2023/08/18 06:20:27;;;;;;;0.50;0.30;;;;;;;24.04;95.86;100192.03;5011153;28;20448;-51
2023/08/18 06:22:54;;;;;;;0.50;0.27;;;;;;;24.01;96.56;100193.16;5012461;28;20481;-51
2023/08/18 06:25:20;;;;;;;0.50;0.20;;;;;;;23.93;97.20;100195.66;5011891;28;20535;-51
2023/08/18 06:27:46;;;;;;;0.50;0.20;;;;;;;23.89;97.48;100192.38;5012645;28;20557;-51
2023/08/18 06:30:13;;;;;;;0.50;0.43;;;;;;;23.90;97.38;100196.81;5012296;28;20997;-51
2023/08/18 06:32:39;;;;;;;0.50;0.20;;;;;;;23.91;97.78;100203.09;5012371;28;20483;-51
2023/08/18 06:35:06;;;;;;;0.50;0.30;;;;;;;23.98;97.83;100204.28;5009224;28;20527;-51
2023/08/18 06:37:33;;;;;;;0.50;0.30;;;;;;;23.78;98.60;100205.13;4999781;28;20932;-50
2023/08/18 06:39:59;;;;;;;0.50;0.30;;;;;;;24.02;96.67;100211.19;5011959;28;20456;-51
2023/08/18 06:42:26;;;;;;;0.50;0.30;;;;;;;24.14;95.79;100209.28;5003032;28;20486;-51
2023/08/18 06:44:53;;;;;;;0.50;0.20;;;;;;;24.21;96.39;100202.28;5012257;28;20460;-51
2023/08/18 06:47:19;;;;;;;0.50;0.30;;;;;;;24.50;95.64;100205.22;5012245;28;20511;-51
2023/08/18 06:49:46;;;;;;;0.50;0.30;;;;;;;24.58;94.25;100201.84;4997349;28;20952;-51
2023/08/18 06:52:12;;;;;;;0.50;0.30;;;;;;;24.47;94.56;100211.78;5012263;28;20899;-51
2023/08/18 06:54:39;;;;;;;0.50;0.30;;;;;;;24.26;94.32;100207.31;4986491;28;20445;-51
2023/08/18 06:57:07;;;;;;;0.50;0.30;;;;;;;24.36;94.50;100211.00;5011015;28;20452;-51
2023/08/18 06:59:33;;;;;;;0.50;0.30;;;;;;;24.58;94.28;100216.28;5012277;28;20484;-51
2023/08/18 07:02:00;;;;;;;0.50;0.27;;;;;;;24.56;93.85;100220.13;5011828;28;21054;-51
2023/08/18 07:04:26;;;;;;;0.50;0.30;;;;;;;24.24;94.87;100216.47;5011967;28;20543;-49
2023/08/18 07:06:53;;;;;;;0.50;0.20;;;;;;;24.27;94.75;100220.81;5011948;28;20940;-49
2023/08/18 07:09:19;;;;;;;0.50;0.20;;;;;;;24.10;94.99;100218.66;5012260;28;20500;-49
2023/08/18 07:11:46;;;;;;;0.50;0.20;;;;;;;24.35;94.26;100218.28;5012061;28;20898;-50
2023/08/18 07:14:12;;;;;;;0.50;0.20;;;;;;;24.41;94.41;100216.91;5011977;28;21063;-49
2023/08/18 07:16:39;;;;;;;0.50;0.20;;;;;;;24.94;93.78;100212.13;5011957;28;20528;-49
2023/08/18 07:19:10;;;;;;;0.50;0.20;;;;;;;24.75;92.96;100217.50;5006727;28;20476;-50
2023/08/18 07:21:36;;;;;;;0.50;0.20;;;;;;;24.65;93.24;100211.16;5011998;28;20473;-49
2023/08/18 07:24:03;;;;;;;0.50;0.20;;;;;;;24.94;92.21;100214.00;5011817;28;20459;-49
2023/08/18 07:26:30;;;;;;;0.50;0.30;;;;;;;24.99;92.35;100214.47;5011785;28;20989;-50
2023/08/18 07:28:56;;;;;;;0.50;0.23;;;;;;;25.00;91.64;100208.91;5012729;28;20510;-49
2023/08/18 07:31:23;;;;;;;0.50;0.20;;;;;;;24.86;91.74;100213.84;5012610;28;20571;-49
2023/08/18 07:33:49;;;;;;;0.50;0.20;;;;;;;24.98;92.58;100216.31;5012772;28;20460;-51
2023/08/18 07:36:15;;;;;;;0.50;0.23;;;;;;;25.11;92.33;100216.09;5008750;28;20452;-49
2023/08/18 07:38:42;;;;;;;1.37;1.27;;;;;;;25.19;91.79;100229.88;5005284;28;20873;-51
2023/08/18 07:41:09;;;;;;;0.50;0.20;;;;;;;25.18;90.91;100217.25;5015461;28;20490;-51
2023/08/18 07:43:35;;;;;;;0.50;0.20;;;;;;;25.34;90.59;100227.59;5006518;28;20479;-51
2023/08/18 07:46:02;;;;;;;0.50;0.30;;;;;;;25.00;90.56;100225.22;5015640;28;20462;-51
2023/08/18 07:48:28;;;;;;;0.50;0.30;;;;;;;24.63;92.62;100215.88;5008248;28;21088;-51
2023/08/18 07:50:56;;;;;;;0.50;0.30;;;;;;;24.90;91.39;100226.16;5011455;28;20539;-51
2023/08/18 07:53:22;;;;;;;0.50;0.37;;;;;;;25.27;91.44;100223.75;5015728;28;20540;-51
2023/08/18 07:55:49;;;;;;;0.50;0.30;;;;;;;25.35;90.95;100224.75;5015603;28;20542;-51
2023/08/18 07:58:15;;;;;;;0.50;0.30;;;;;;;25.53;90.37;100221.34;5015468;28;20821;-51
2023/08/18 08:00:42;;;;;;;0.50;0.20;;;;;;;25.38;89.53;100226.34;5015201;28;20800;-51
2023/08/18 08:03:08;;;;;;;0.50;0.30;;;;;;;25.49;90.58;100223.47;5015514;28;20471;-51
2023/08/18 08:05:35;;;;;;;0.50;0.20;;;;;;;25.44;90.27;100223.06;5015218;28;20452;-49
2023/08/18 08:08:03;;;;;;;0.50;0.30;;;;;;;25.77;90.04;100218.22;5015506;28;20590;-51
2023/08/18 08:10:30;;;;;;;0.50;0.30;;;;;;;25.72;89.79;100223.25;5015409;28;20510;-50
2023/08/18 08:12:57;;;;;;;0.50;0.30;;;;;;;25.64;90.00;100223.94;5015191;28;20551;-51
2023/08/18 08:15:23;;;;;;;0.50;0.30;;;;;;;25.72;89.67;100223.25;5015037;28;20455;-51
2023/08/18 08:17:51;;;;;;;0.50;0.50;;;;;;;25.94;88.68;100228.44;5013313;28;20448;-51
2023/08/18 08:20:17;;;;;;;0.50;0.27;;;;;;;26.03;88.28;100227.53;5013067;28;20455;-51
2023/08/18 08:22:49;;;;;;;0.50;0.30;;;;;;;26.26;87.66;100226.25;5015089;28;20507;-51
2023/08/18 08:25:17;;;;;;;0.50;0.20;;;;;;;26.16;87.48;100235.44;5013815;28;20495;-51
2023/08/18 08:27:43;;;;;;;0.50;0.23;;;;;;;26.21;87.42;100228.56;5014550;28;20488;-50
2023/08/18 08:30:12;;;;;;;0.50;0.20;;;;;;;26.55;87.76;100228.94;5014587;28;20828;-51
2023/08/18 08:32:51;;;;;;;0.50;0.20;;;;;;;26.58;86.94;100238.69;5014438;28;21001;-51
2023/08/18 08:35:18;;;;;;;0.50;0.40;;;;;;;26.70;86.63;100234.75;5011796;28;20452;-51
2023/08/18 08:37:44;;;;;;;0.50;0.20;;;;;;;26.51;86.45;100235.69;5001121;28;20887;-51
2023/08/18 08:40:17;;;;;;;0.50;0.30;;;;;;;26.55;85.21;100228.06;5014451;28;20543;-51
2023/08/18 08:42:45;;;;;;;0.50;0.20;;;;;;;26.36;87.59;100226.25;5005105;28;20481;-51
2023/08/18 08:45:11;;;;;;;0.50;0.30;;;;;;;26.64;87.28;100231.78;5014816;28;20463;-51
2023/08/18 08:47:39;;;;;;;0.50;0.23;;;;;;;26.81;85.99;100226.41;5013409;28;20546;-51
2023/08/18 08:50:06;;;;;;;0.50;0.30;;;;;;;27.09;85.29;100224.59;5004082;28;20456;-51
2023/08/18 08:52:39;;;;;;;0.50;0.30;;;;;;;26.70;85.96;100221.13;5014056;28;20981;-51
2023/08/18 08:55:13;;;;;;;0.60;0.53;;;;;;;26.67;85.71;100226.88;5014529;28;20480;-51
2023/08/18 08:57:40;;;;;;;0.50;0.30;;;;;;;26.64;85.62;100219.00;5014111;28;20449;-51
2023/08/18 09:00:09;;;;;;;0.50;0.30;;;;;;;26.79;86.87;100224.84;5014007;28;20449;-52
2023/08/18 09:02:38;;;;;;;0.50;0.20;;;;;;;26.58;87.41;100223.16;5013849;28;20468;-52
2023/08/18 09:05:05;;;;;;;0.50;0.20;;;;;;;26.70;86.54;100225.72;5013892;28;20488;-51
2023/08/18 09:07:32;;;;;;;0.50;0.30;;;;;;;26.73;86.98;100209.94;5013842;28;21095;-50
2023/08/18 09:09:59;;;;;;;0.50;0.20;;;;;;;26.71;86.29;100211.94;5013885;28;20489;-51
2023/08/18 09:12:29;;;;;;;0.50;0.20;;;;;;;26.64;87.30;100219.00;5013761;28;20483;-51
2023/08/18 09:15:00;;;;;;;0.50;0.30;;;;;;;26.57;87.00;100224.19;5013714;28;20544;-51
2023/08/18 09:17:26;;;;;;;0.50;0.27;;;;;;;26.90;85.67;100207.44;5013927;28;20451;-51
2023/08/18 09:19:57;;;;;;;0.50;0.30;;;;;;;26.95;86.72;100216.00;5008468;28;20445;-51
2023/08/18 09:22:24;;;;;;;0.50;0.30;;;;;;;26.99;85.58;100203.78;5013500;28;20476;-51
2023/08/18 09:24:51;;;;;;;0.50;0.20;;;;;;;27.21;85.07;100202.53;5013624;28;20536;-51
2023/08/18 09:27:20;;;;;;;0.50;0.20;;;;;;;27.12;85.02;100207.91;5013745;28;20484;-51
2023/08/18 09:29:47;;;;;;;0.50;0.30;;;;;;;26.97;85.37;100209.38;5013921;28;20457;-50
2023/08/18 09:32:14;;;;;;;0.50;0.30;;;;;;;27.26;85.60;100211.13;5013478;28;20488;-51
2023/08/18 09:34:48;;;;;;;0.50;0.23;;;;;;;27.38;86.28;100210.75;5010819;28;20448;-51
2023/08/18 09:37:18;;;;;;;0.50;0.40;;;;;;;27.09;85.50;100207.34;4994148;28;20449;-51
2023/08/18 09:39:52;;;;;;;0.50;0.40;;;;;;;27.18;85.15;100200.13;5012019;28;20483;-51
2023/08/18 09:42:18;;;;;;;0.50;0.30;;;;;;;27.39;84.50;100209.75;5005403;28;20517;-50
2023/08/18 09:44:45;;;;;;;0.50;0.30;;;;;;;27.33;83.08;100209.53;5012070;28;20863;-51
2023/08/18 09:47:13;;;;;;;0.50;0.30;;;;;;;27.47;83.65;100199.94;5013615;28;20488;-51
2023/08/18 09:49:42;;;;;;;0.50;0.30;;;;;;;27.70;83.52;100206.72;5001603;28;20866;-51
2023/08/18 09:52:12;;;;;;;0.50;0.30;;;;;;;27.56;84.08;100207.22;5013104;28;20480;-51
2023/08/18 09:55:14;;;;;;;0.50;0.30;;;;;;;27.77;83.19;100210.50;5013323;28;20449;-50
2023/08/18 09:57:44;;;;;;;0.50;0.20;;;;;;;28.06;83.15;100206.66;5013378;28;20448;-50
2023/08/18 10:00:12;;;;;;;0.50;0.30;;;;;;;27.89;82.71;100205.66;5012514;28;20449;-51
2023/08/18 10:02:41;;;;;;;0.50;0.30;;;;;;;28.05;82.22;100211.28;5012934;28;20595;-51
2023/08/18 10:05:08;;;;;;;0.50;0.30;;;;;;;27.82;82.18;100201.84;5013288;28;20456;-51
2023/08/18 10:07:35;;;;;;;0.50;0.27;;;;;;;27.97;80.02;100211.22;5012894;28;20492;-50
2023/08/18 10:10:02;;;;;;;0.50;0.30;;;;;;;28.31;80.57;100198.53;5012864;28;20496;-51
2023/08/18 10:12:29;;;;;;;0.50;0.20;;;;;;;28.68;78.68;100202.88;5012909;28;20912;-51
2023/08/18 10:14:58;;;;;;;0.50;0.30;;;;;;;28.38;78.61;100212.44;5012902;28;20535;-50
2023/08/18 10:17:24;;;;;;;0.50;0.30;;;;;;;28.18;79.16;100210.88;5012950;28;20541;-51
2023/08/18 10:19:56;;;;;;;0.50;0.30;;;;;;;28.53;78.77;100210.81;5007766;28;20490;-51
2023/08/18 10:22:26;;;;;;;0.50;0.30;;;;;;;28.14;78.33;100191.19;5012579;28;20635;-51
2023/08/18 10:24:54;;;;;;;0.50;0.30;;;;;;;28.32;79.44;100196.66;5012839;28;20476;-51
2023/08/18 10:27:26;;;;;;;0.50;0.30;;;;;;;28.76;77.71;100188.34;5012966;28;20494;-51
2023/08/18 10:29:58;;;;;;;1.43;1.33;;;;;;;28.62;76.49;100185.22;5012590;28;20507;-50
2023/08/18 10:32:25;;;;;;;0.50;0.30;;;;;;;28.94;76.58;100183.72;5012701;28;20578;-51
2023/08/18 10:34:52;;;;;;;0.50;0.20;;;;;;;28.78;76.12;100184.47;5008079;28;21042;-49
2023/08/18 10:37:22;;;;;;;0.50;0.30;;;;;;;29.28;74.52;100188.25;4992773;28;20814;-49
2023/08/18 10:39:51;;;;;;;0.50;0.40;;;;;;;28.66;73.75;100188.50;4997772;28;20459;-49
2023/08/18 10:42:22;;;;;;;0.50;0.40;;;;;;;29.07;74.80;100175.03;5012216;28;20468;-49
2023/08/18 10:45:05;;;;;;;0.50;0.30;;;;;;;29.29;73.97;100181.75;4999102;28;20440;-49
2023/08/18 10:47:33;;;;;;;0.50;0.30;;;;;;;29.68;73.26;100179.28;5012117;28;20492;-49
2023/08/18 10:50:06;;;;;;;0.50;0.30;;;;;;;29.41;73.17;100175.78;4989715;28;20502;-49
2023/08/18 10:52:32;;;;;;;0.50;0.43;;;;;;;29.43;69.77;100173.75;5009604;28;20552;-49
2023/08/18 10:54:59;;;;;;;0.67;0.57;;;;;;;29.56;72.27;100175.16;5002266;28;20448;-49
2023/08/18 10:57:27;;;;;;;0.50;0.30;;;;;;;29.05;73.91;100172.44;5012106;28;21020;-49
2023/08/18 10:59:53;;;;;;;0.50;0.30;;;;;;;29.06;74.45;100165.09;5012155;28;20448;-49
2023/08/18 11:02:19;;;;;;;0.50;0.30;;;;;;;29.19;72.98;100159.97;5012060;28;21037;-48
2023/08/18 11:04:46;;;;;;;0.50;0.30;;;;;;;29.61;72.32;100159.97;5002856;28;20453;-50
2023/08/18 11:07:12;;;;;;;0.50;0.30;;;;;;;29.70;71.91;100152.56;5008722;28;20452;-49
2023/08/18 11:09:39;;;;;;;0.50;0.30;;;;;;;28.95;72.38;100154.44;5002462;28;20445;-49
2023/08/18 11:12:06;;;;;;;0.50;0.30;;;;;;;29.43;72.80;100154.56;5012018;28;20519;-49
2023/08/18 11:14:32;;;;;;;0.50;0.30;;;;;;;29.31;70.38;100161.38;5015695;28;20448;-49
2023/08/18 11:16:59;;;;;;;0.50;0.30;;;;;;;29.17;71.54;100160.16;5002578;28;20460;-49
2023/08/18 11:19:25;;;;;;;0.50;0.30;;;;;;;29.33;70.43;100159.38;5001197;28;20536;-50
2023/08/18 11:21:52;;;;;;;0.50;0.30;;;;;;;29.28;70.64;100145.28;4996243;28;20524;-49
2023/08/18 11:24:18;;;;;;;0.60;0.50;;;;;;;29.41;70.34;100145.66;5006461;28;20455;-50